Airfield :
LOGIN :

Register | Disclaimer

   EN    FR    IT 

 










Legend :    VFR   Marginal VFR   IFR   Intensive IFR   Very Intensive IFR
Visi :
Ceiling :
>= 8 km
>= 3000ft
5 to 8 km
1000 to 3000 ft
1500m to 5 km
500 to 1000 ft
800 to 1500m
200 to 500 ft
< 800m
< 200 ft
Symbols :   Thunderstorms  Fog  Heavy snow  Heavy precipitations  Wind > 20 kt
SIGMETs :     Misc.  Thunderstorms  Icing  Turbulence  Mountain Waves  Volcanic Ashes






- Airport Elevation : 194 ft
- IATA code : ANE


LFJR - Angers Marcé

CURRENT METAR :
  • 260900Z AUTO 16006KT 0750 0650 R26/1100N FG VV/// 06/05 Q1017

EXPIRED METARs :
  • 260830Z AUTO 15006KT 1000 0750 R26/1700U BCFG OVC002 06/05 Q1017
  • 260800Z AUTO VRB02KT 0900 R26/1100U FG VV/// 06/06 Q1017
  • 260730Z AUTO 16003KT 1300 1100 R26/1400N BR VV/// 06/06 Q1016
  • 260700Z AUTO 16003KT 1100 R26/1400D BR OVC003 06/06 Q1016
  • 260630Z AUTO 15004KT 5000 BR OVC004 06/06 Q1016

Expired Forecast.



MET'MAP, your aeronautical weather chart ! - Copyright ORBIFLY December 2007 - Disclaimer

ORBIFLY MET'MAP TEAM :

Programming & Development : Alexandra Zaïnal
Concept & original design : Baudouin d'Aumeries
Assistance for programming : Marc-Olivier Méhu
Technical & hardware support : Manuel Goepfert

Contact : metmap@orbifly.com




SOURCES & CREDITS :

   NOAA